Terminal Aerodrome Forecast
Issued by NWS

Home | Current Version | Previous Version | Graphics & Text | Print | Product List | Glossary On
Versions: 1 2 3 4 5 6 7 8 9 10 11 12 13
404
FTUS43 KMPX 231739
TAFRWF
TAF
KRWF 231739Z 2318/2418 36010KT P6SM SCT015 BKN040
      TEMPO 2318/2321 BKN015
     FM232100 05013KT P6SM VCSH SCT015 OVC035
     FM240000 04014KT P6SM -RASN SCT020 OVC040
     FM240200 04014G22KT P6SM -SN OVC040
     FM240400 03015G24KT 6SM -SN OVC025
     FM240600 02017G27KT 5SM -SN BLSN OVC025
     FM241200 01019G30KT 4SM -SN BLSN OVC020=

USA.gov is the U.S. government's official web portal to all federal, state and local government web resources and services.